Time;durP1;ratioP1;P1;durP2;ratioP2;P2;SDS_P1;SDS_P2;PMS_P1;PMS_P2;Temp;Humidity;BMP_temperature;BMP_pressure;BME280_temperature;BME280_humidity;BME280_pressure;Samples;Min_cycle;Max_cycle;Signal;HPM_P1;HPM_P2
2021/03/05 00:00:44;;;;;;;11.77;10.77;;;8.30;99.90;;;;;;5047532;28;20662;-90
2021/03/05 00:03:10;;;;;;;10.70;9.30;;;8.30;99.90;;;;;;5046647;28;20683;-91
2021/03/05 00:05:39;;;;;;;10.50;9.60;;;8.20;99.90;;;;;;5042307;28;21118;-91
2021/03/05 00:08:07;;;;;;;11.40;10.50;;;8.30;99.90;;;;;;5047563;28;20641;-91
2021/03/05 00:10:35;;;;;;;11.93;10.93;;;8.20;99.90;;;;;;5042263;28;20673;-90
2021/03/05 00:13:03;;;;;;;17.60;16.13;;;8.30;99.90;;;;;;5045841;28;20612;-90
2021/03/05 00:15:32;;;;;;;18.50;17.00;;;8.10;99.90;;;;;;5043762;28;20739;-90
2021/03/05 00:17:59;;;;;;;19.97;18.37;;;7.90;99.90;;;;;;5039521;28;20726;-89
2021/03/05 00:20:27;;;;;;;18.27;16.50;;;7.80;99.90;;;;;;5044166;28;20667;-89
2021/03/05 00:22:54;;;;;;;19.27;17.67;;;7.80;99.90;;;;;;5044117;28;20625;-88
2021/03/05 00:25:21;;;;;;;18.93;17.43;;;7.80;99.90;;;;;;5044749;28;20634;-88
2021/03/05 00:27:49;;;;;;;18.40;17.00;;;7.80;99.90;;;;;;5042064;28;20963;-88
2021/03/05 00:30:18;;;;;;;20.43;18.83;;;7.60;99.90;;;;;;5037464;28;20757;-88
2021/03/05 00:32:45;;;;;;;22.23;20.53;;;7.50;99.90;;;;;;5039529;28;20646;-89
2021/03/05 00:35:17;;;;;;;22.90;21.10;;;7.50;99.90;;;;;;5038068;28;21234;-88
2021/03/05 00:37:44;;;;;;;22.60;20.80;;;7.50;99.90;;;;;;5044428;28;20660;-89
2021/03/05 00:40:12;;;;;;;23.93;21.93;;;7.30;99.90;;;;;;5041689;28;20645;-90
2021/03/05 00:42:40;;;;;;;22.83;21.13;;;7.20;99.90;;;;;;5037681;28;20650;-89
2021/03/05 00:45:08;;;;;;;25.50;23.60;;;7.20;99.90;;;;;;5038560;28;20627;-89
2021/03/05 00:47:36;;;;;;;23.53;21.80;;;7.20;99.90;;;;;;5036663;28;20685;-89
2021/03/05 00:50:03;;;;;;;25.20;23.30;;;7.20;99.90;;;;;;5038867;28;21201;-90
2021/03/05 00:52:30;;;;;;;24.23;22.30;;;7.20;99.90;;;;;;5041064;28;20624;-90
2021/03/05 00:54:56;;;;;;;26.10;23.97;;;6.90;99.90;;;;;;5039373;28;20630;-89
2021/03/05 00:57:22;;;;;;;27.47;25.13;;;6.80;99.90;;;;;;5037213;28;20634;-89
2021/03/05 00:59:48;;;;;;;29.30;26.90;;;6.80;99.90;;;;;;5037500;28;20646;-89
2021/03/05 01:02:15;;;;;;;31.13;28.40;;;6.50;99.90;;;;;;5041729;28;21140;-89
2021/03/05 01:04:43;;;;;;;32.67;29.77;;;6.40;99.90;;;;;;5039184;28;21142;-89
2021/03/05 01:07:14;;;;;;;32.87;30.07;;;6.30;99.90;;;;;;5060576;28;20613;-90
2021/03/05 01:09:41;;;;;;;34.53;31.93;;;6.30;99.90;;;;;;5043866;28;21299;-89
2021/03/05 01:12:08;;;;;;;33.73;30.70;;;6.20;99.90;;;;;;5040227;28;20781;-90
2021/03/05 01:14:36;;;;;;;36.03;33.23;;;6.20;99.90;;;;;;5024907;28;20630;-89
2021/03/05 01:17:03;;;;;;;33.33;30.30;;;6.00;99.90;;;;;;5038382;28;20995;-89
2021/03/05 01:19:31;;;;;;;31.60;28.50;;;5.90;99.90;;;;;;5046349;28;20668;-89
2021/03/05 01:22:00;;;;;;;30.87;28.17;;;5.90;99.90;;;;;;5043889;28;20638;-89
2021/03/05 01:24:26;;;;;;;32.83;30.13;;;5.90;99.90;;;;;;5052900;28;20610;-89
2021/03/05 01:26:54;;;;;;;29.77;27.07;;;6.00;99.90;;;;;;5052528;28;20638;-89
2021/03/05 01:29:20;;;;;;;29.27;26.60;;;5.90;99.90;;;;;;5041836;28;21035;-88
2021/03/05 01:31:47;;;;;;;30.63;28.03;;;5.90;99.90;;;;;;5043711;28;20668;-88
2021/03/05 01:34:13;;;;;;;33.03;30.33;;;5.90;99.90;;;;;;5044822;28;20634;-88
2021/03/05 01:36:40;;;;;;;30.60;27.77;;;5.70;99.90;;;;;;5040174;28;22486;-90
2021/03/05 01:39:07;;;;;;;33.70;30.47;;;5.70;99.90;;;;;;5044448;28;20707;-88
2021/03/05 01:41:34;;;;;;;35.47;32.17;;;5.60;99.90;;;;;;5040381;28;20658;-89
2021/03/05 01:44:01;;;;;;;36.57;33.13;;;5.50;99.90;;;;;;5040099;28;21001;-88
2021/03/05 01:46:29;;;;;;;40.20;36.83;;;5.40;99.90;;;;;;5042413;28;20701;-89
2021/03/05 01:48:56;;;;;;;37.30;33.60;;;5.30;99.90;;;;;;5045221;28;20720;-89
2021/03/05 01:51:25;;;;;;;38.77;34.77;;;5.30;99.90;;;;;;5043581;28;20677;-89
2021/03/05 01:53:51;;;;;;;40.00;36.00;;;5.20;99.90;;;;;;5046507;28;21141;-89
2021/03/05 01:56:38;;;;;;;41.20;37.03;;;5.20;99.90;;;;;;5036761;28;20638;-89
2021/03/05 01:59:06;;;;;;;39.87;35.87;;;5.10;99.90;;;;;;5040681;28;20652;-89
2021/03/05 02:01:33;;;;;;;40.80;37.20;;;5.10;99.90;;;;;;5048489;28;20667;-89
2021/03/05 02:04:01;;;;;;;38.40;34.60;;;5.10;99.90;;;;;;5018628;28;20627;-89
2021/03/05 02:06:27;;;;;;;38.47;34.60;;;5.20;99.90;;;;;;5043919;28;20853;-88
2021/03/05 02:08:53;;;;;;;39.00;35.17;;;5.20;99.90;;;;;;5042522;28;20635;-87
2021/03/05 02:11:21;;;;;;;35.30;31.70;;;4.90;99.90;;;;;;5042842;28;20685;-88
2021/03/05 02:13:49;;;;;;;37.60;33.70;;;4.90;99.90;;;;;;5045610;28;20834;-87
2021/03/05 02:16:25;;;;;;;39.33;35.30;;;4.80;99.90;;;;;;5041070;28;20618;-88
2021/03/05 02:19:00;;;;;;;41.07;36.87;;;4.80;99.90;;;;;;5041338;28;20667;-87
2021/03/05 02:22:11;;;;;;;39.40;35.33;;;4.80;99.90;;;;;;5043735;28;20687;-87
2021/03/05 02:25:07;;;;;;;37.33;33.43;;;4.80;99.90;;;;;;5062193;28;20622;-90
2021/03/05 02:28:00;;;;;;;34.43;30.77;;;5.00;99.90;;;;;;5016079;28;20625;-89
2021/03/05 02:31:04;;;;;;;35.00;31.20;;;4.80;99.90;;;;;;5045555;28;20690;-89
2021/03/05 02:33:38;;;;;;;34.23;30.73;;;4.80;99.90;;;;;;5038264;28;20641;-90
2021/03/05 02:36:07;;;;;;;35.27;31.40;;;4.80;99.90;;;;;;5041926;28;20638;-89
2021/03/05 02:38:36;;;;;;;34.33;30.70;;;4.80;99.90;;;;;;5043509;28;20628;-89
2021/03/05 02:41:06;;;;;;;35.80;31.90;;;4.80;99.90;;;;;;5043328;28;20634;-88
2021/03/05 02:43:37;;;;;;;33.30;29.60;;;4.80;99.90;;;;;;5042181;28;20672;-88
2021/03/05 02:46:07;;;;;;;35.07;31.37;;;4.70;99.90;;;;;;5038805;28;20610;-89
2021/03/05 02:48:39;;;;;;;36.30;31.17;;;4.70;99.90;;;;;;5049065;28;20634;-88
2021/03/05 02:51:07;;;;;;;38.40;33.03;;;4.80;99.90;;;;;;5039247;28;20658;-89
2021/03/05 02:53:35;;;;;;;33.90;29.13;;;4.80;99.90;;;;;;5039172;28;20721;-88
2021/03/05 02:56:07;;;;;;;33.93;30.20;;;4.80;99.90;;;;;;5042706;28;20642;-89
2021/03/05 02:58:33;;;;;;;37.70;33.57;;;4.60;99.90;;;;;;5041242;28;21007;-89
2021/03/05 03:01:01;;;;;;;34.07;30.37;;;4.60;99.90;;;;;;5037332;28;21029;-89
2021/03/05 03:03:28;;;;;;;35.07;30.03;;;4.60;99.90;;;;;;5038198;28;20627;-89
2021/03/05 03:05:56;;;;;;;34.17;30.47;;;4.60;99.90;;;;;;5044554;28;21273;-89
2021/03/05 03:08:23;;;;;;;30.37;27.30;;;4.70;99.90;;;;;;5038436;28;21154;-88
2021/03/05 03:10:50;;;;;;;32.33;29.13;;;4.60;99.90;;;;;;5036445;28;20724;-88
2021/03/05 03:13:18;;;;;;;34.70;29.87;;;4.60;99.90;;;;;;5040503;28;21180;-90
2021/03/05 03:15:45;;;;;;;31.50;28.20;;;4.60;99.90;;;;;;5040109;28;20627;-89
2021/03/05 03:18:14;;;;;;;30.17;27.00;;;4.60;99.90;;;;;;5041386;28;20642;-90
2021/03/05 03:20:42;;;;;;;30.10;26.63;;;4.50;99.90;;;;;;5041009;28;20642;-90
2021/03/05 03:23:10;;;;;;;29.57;26.53;;;4.50;99.90;;;;;;5039076;28;20622;-90
2021/03/05 03:25:36;;;;;;;28.37;25.50;;;4.50;99.90;;;;;;5047516;28;20738;-89
2021/03/05 03:28:03;;;;;;;29.33;26.30;;;4.70;99.90;;;;;;5036604;28;20626;-89
2021/03/05 03:30:30;;;;;;;28.60;25.60;;;4.50;99.90;;;;;;5038449;28;20678;-89
2021/03/05 03:32:57;;;;;;;30.80;27.63;;;4.60;99.90;;;;;;5039067;28;20646;-90
2021/03/05 03:35:24;;;;;;;30.97;27.77;;;4.60;99.90;;;;;;5047071;28;20644;-90
2021/03/05 03:37:52;;;;;;;30.43;27.13;;;4.60;99.90;;;;;;5039461;28;20656;-90
2021/03/05 03:40:21;;;;;;;30.80;27.83;;;4.60;99.90;;;;;;5041122;28;20658;-90
2021/03/05 03:42:48;;;;;;;29.20;26.30;;;4.70;99.90;;;;;;5040294;28;20660;-90
2021/03/05 03:45:16;;;;;;;31.57;28.37;;;4.60;99.90;;;;;;5039399;28;20705;-90
2021/03/05 03:47:44;;;;;;;30.80;27.50;;;4.70;99.90;;;;;;5033337;28;20623;-91
2021/03/05 03:50:18;;;;;;;29.63;26.73;;;4.70;99.90;;;;;;5037116;28;20991;-90
2021/03/05 03:52:51;;;;;;;26.80;24.30;;;4.70;99.90;;;;;;5039241;28;21059;-90
2021/03/05 03:55:18;;;;;;;29.37;26.30;;;4.60;99.90;;;;;;5041126;28;20614;-90
2021/03/05 03:57:46;;;;;;;26.50;23.80;;;4.60;99.90;;;;;;5044791;28;20935;-90
2021/03/05 04:00:15;;;;;;;25.63;23.23;;;4.70;99.90;;;;;;5036829;28;20653;-89
2021/03/05 04:02:47;;;;;;;26.43;23.97;;;4.70;99.90;;;;;;5040526;28;21126;-90
2021/03/05 04:05:17;;;;;;;24.93;22.70;;;4.60;99.90;;;;;;5043733;28;20652;-90
2021/03/05 04:07:46;;;;;;;27.40;24.63;;;4.60;99.90;;;;;;5040785;28;20745;-90
2021/03/05 04:10:13;;;;;;;25.03;22.80;;;4.60;99.90;;;;;;5044581;28;21071;-90
2021/03/05 04:12:42;;;;;;;26.17;23.77;;;4.60;99.90;;;;;;5041961;28;20630;-91
2021/03/05 04:15:10;;;;;;;24.57;22.27;;;4.50;99.90;;;;;;5039692;28;20621;-89
2021/03/05 04:17:36;;;;;;;23.67;21.43;;;4.60;99.90;;;;;;5043584;28;20712;-91
2021/03/05 04:20:04;;;;;;;25.70;23.27;;;4.60;99.90;;;;;;5040044;28;21081;-91
2021/03/05 04:22:32;;;;;;;23.57;21.33;;;4.40;99.90;;;;;;5037972;28;20633;-89
2021/03/05 04:24:59;;;;;;;23.73;21.60;;;4.50;99.90;;;;;;5041206;28;20982;-89
2021/03/05 04:27:26;;;;;;;23.37;21.27;;;4.50;99.90;;;;;;5039840;28;20785;-90
2021/03/05 04:29:53;;;;;;;25.03;22.67;;;4.30;99.90;;;;;;5051617;28;20662;-90
2021/03/05 04:32:20;;;;;;;23.03;20.80;;;4.30;99.90;;;;;;5054615;28;20716;-90
2021/03/05 04:34:46;;;;;;;21.67;19.67;;;4.40;99.90;;;;;;5040312;28;20713;-89
2021/03/05 04:37:12;;;;;;;22.80;20.70;;;4.30;99.90;;;;;;5037959;28;20637;-88
2021/03/05 04:39:38;;;;;;;24.27;21.90;;;4.30;99.90;;;;;;5040606;28;20666;-89
2021/03/05 04:42:05;;;;;;;23.90;21.80;;;4.30;99.90;;;;;;5040309;28;20630;-90
2021/03/05 04:44:32;;;;;;;23.37;21.27;;;4.30;99.90;;;;;;5036425;28;20629;-90
2021/03/05 04:47:00;;;;;;;24.27;22.07;;;4.20;99.90;;;;;;5024110;28;20618;-90
2021/03/05 04:49:26;;;;;;;23.77;21.63;;;4.40;99.90;;;;;;5041757;28;20610;-88
2021/03/05 04:51:52;;;;;;;21.70;19.80;;;4.30;99.90;;;;;;5039230;28;20791;-88
2021/03/05 04:54:18;;;;;;;22.50;20.50;;;4.30;99.90;;;;;;5042071;28;20641;-88
2021/03/05 04:56:45;;;;;;;24.40;22.20;;;4.30;99.90;;;;;;5043629;28;20654;-88
2021/03/05 04:59:11;;;;;;;23.10;21.03;;;4.30;99.90;;;;;;5042861;28;21121;-89
2021/03/05 05:01:37;;;;;;;20.93;19.23;;;4.30;99.90;;;;;;5041900;28;20641;-89
2021/03/05 05:04:05;;;;;;;20.27;18.53;;;4.40;99.90;;;;;;5046214;28;20637;-88
2021/03/05 05:06:31;;;;;;;20.83;19.00;;;4.40;99.90;;;;;;5043038;28;20625;-89
2021/03/05 05:08:57;;;;;;;22.87;20.70;;;4.40;99.90;;;;;;5044540;28;21321;-88
2021/03/05 05:11:24;;;;;;;19.50;18.00;;;4.50;99.90;;;;;;5041396;28;21272;-90
2021/03/05 05:13:50;;;;;;;21.80;19.90;;;4.50;99.90;;;;;;5041938;28;20633;-90
2021/03/05 05:16:16;;;;;;;19.83;18.03;;;4.50;99.90;;;;;;5041688;28;21056;-90
2021/03/05 05:18:42;;;;;;;19.97;18.27;;;4.50;99.90;;;;;;5038989;28;20622;-90
2021/03/05 05:21:10;;;;;;;19.23;17.53;;;4.50;99.90;;;;;;5039781;28;21244;-89
2021/03/05 05:23:36;;;;;;;21.77;19.67;;;4.40;99.90;;;;;;5043561;28;20708;-91
2021/03/05 05:26:02;;;;;;;22.13;19.97;;;4.50;99.90;;;;;;5045629;28;20660;-93
2021/03/05 05:28:29;;;;;;;20.83;18.93;;;4.60;99.90;;;;;;5043070;28;20638;-91
2021/03/05 05:30:55;;;;;;;18.07;16.50;;;4.40;99.90;;;;;;5047298;28;20654;-89
2021/03/05 05:33:21;;;;;;;19.30;17.67;;;4.40;99.90;;;;;;5048323;28;20668;-89
2021/03/05 05:35:48;;;;;;;18.03;16.53;;;4.40;99.90;;;;;;5042449;28;21065;-89
2021/03/05 05:38:15;;;;;;;17.30;15.90;;;4.40;99.90;;;;;;5046348;28;20613;-92
2021/03/05 05:40:41;;;;;;;17.20;15.73;;;4.50;99.90;;;;;;5044222;28;20687;-90
2021/03/05 05:43:08;;;;;;;16.97;15.53;;;4.50;99.90;;;;;;5046311;28;20648;-91
2021/03/05 05:45:34;;;;;;;17.00;15.40;;;4.40;99.90;;;;;;5046682;28;20642;-90
2021/03/05 05:48:02;;;;;;;16.47;15.00;;;4.30;99.90;;;;;;5045762;28;20622;-88
2021/03/05 05:50:28;;;;;;;17.10;15.40;;;4.30;99.90;;;;;;5067335;28;20645;-91
2021/03/05 05:52:56;;;;;;;16.33;14.77;;;4.40;99.90;;;;;;5052097;28;20662;-91
2021/03/05 05:55:24;;;;;;;16.50;15.00;;;4.40;99.90;;;;;;5045012;28;21031;-92
2021/03/05 05:57:52;;;;;;;17.57;16.00;;;4.40;99.90;;;;;;5040296;28;20639;-91
2021/03/05 06:00:23;;;;;;;15.53;14.13;;;4.40;99.90;;;;;;5042822;28;20642;-92
2021/03/05 06:02:51;;;;;;;15.07;13.87;;;4.40;99.90;;;;;;5047257;28;20665;-91
2021/03/05 06:05:18;;;;;;;15.40;14.10;;;4.40;99.90;;;;;;5028231;28;20645;-90
2021/03/05 06:07:45;;;;;;;17.47;15.87;;;4.50;99.90;;;;;;5049804;28;21226;-89
2021/03/05 06:10:12;;;;;;;15.57;14.17;;;4.50;99.90;;;;;;5048176;28;20646;-88
2021/03/05 06:12:40;;;;;;;14.67;13.27;;;4.40;99.90;;;;;;5040852;28;20634;-89
2021/03/05 06:15:08;;;;;;;16.30;14.80;;;4.50;99.90;;;;;;5041160;28;20707;-89
2021/03/05 06:17:42;;;;;;;16.10;14.70;;;4.50;99.90;;;;;;5045601;28;20614;-88
2021/03/05 06:20:10;;;;;;;15.87;14.37;;;4.40;99.90;;;;;;5042211;28;20661;-88
2021/03/05 06:22:36;;;;;;;14.33;13.13;;;4.60;99.90;;;;;;5052808;28;20809;-88
2021/03/05 06:25:03;;;;;;;15.20;13.80;;;4.50;99.90;;;;;;5050106;28;20636;-89
2021/03/05 06:27:30;;;;;;;17.60;15.90;;;4.40;99.90;;;;;;5038738;28;21721;-89
2021/03/05 06:29:58;;;;;;;15.80;14.30;;;4.40;99.90;;;;;;5042941;28;20663;-89
2021/03/05 06:32:38;;;;;;;17.37;15.83;;;4.40;99.90;;;;;;5040216;28;21220;-89
2021/03/05 06:35:06;;;;;;;15.70;14.20;;;4.50;99.90;;;;;;5035414;28;20625;-89
2021/03/05 06:37:43;;;;;;;15.47;13.97;;;4.50;99.90;;;;;;5039154;28;20621;-90
2021/03/05 06:40:11;;;;;;;15.60;14.10;;;4.50;99.90;;;;;;5041500;28;20669;-90
2021/03/05 06:42:50;;;;;;;14.80;13.40;;;4.50;99.90;;;;;;5040557;28;20703;-88
2021/03/05 06:45:21;;;;;;;15.73;14.23;;;4.50;99.90;;;;;;5042294;28;21194;-87
2021/03/05 06:48:03;;;;;;;15.73;14.33;;;4.50;99.90;;;;;;5045005;28;20574;-89
2021/03/05 06:50:35;;;;;;;15.50;14.00;;;4.50;99.90;;;;;;5043286;28;20652;-88
2021/03/05 06:53:01;;;;;;;15.40;14.00;;;4.40;99.90;;;;;;5046512;28;20628;-88
2021/03/05 06:55:28;;;;;;;17.77;15.27;;;4.20;99.90;;;;;;5043346;28;20607;-88
2021/03/05 06:57:54;;;;;;;16.37;14.70;;;4.40;99.90;;;;;;5023180;28;20627;-88
2021/03/05 07:00:23;;;;;;;17.50;15.77;;;4.30;99.90;;;;;;5047155;28;20675;-88
2021/03/05 07:02:50;;;;;;;17.03;15.43;;;4.40;99.90;;;;;;5043511;28;20684;-89
2021/03/05 07:05:17;;;;;;;17.03;15.33;;;4.30;99.90;;;;;;5040005;28;20642;-89
2021/03/05 07:07:45;;;;;;;17.80;15.90;;;4.30;99.90;;;;;;5042744;28;20635;-88
2021/03/05 07:10:13;;;;;;;16.50;14.90;;;4.30;99.90;;;;;;5038477;28;20667;-90
2021/03/05 07:12:59;;;;;;;16.20;14.70;;;4.30;99.90;;;;;;5042492;28;20662;-88
2021/03/05 07:15:26;;;;;;;14.67;13.30;;;4.30;99.90;;;;;;5044579;28;20626;-89
2021/03/05 07:17:52;;;;;;;16.50;14.80;;;4.30;99.90;;;;;;5040480;28;20641;-89
2021/03/05 07:20:19;;;;;;;19.10;17.20;;;4.30;99.90;;;;;;5046354;28;21229;-88
2021/03/05 07:22:48;;;;;;;16.90;15.13;;;4.30;99.90;;;;;;5043025;28;20630;-89
2021/03/05 07:25:16;;;;;;;15.03;13.53;;;4.20;99.90;;;;;;5039213;28;20582;-90
2021/03/05 07:27:43;;;;;;;17.70;15.70;;;4.10;99.90;;;;;;5039762;28;20610;-88
2021/03/05 07:30:12;;;;;;;16.23;14.53;;;4.30;99.90;;;;;;5042906;28;20689;-89
2021/03/05 07:32:46;;;;;;;15.17;13.53;;;4.20;99.90;;;;;;5042673;28;20678;-90
2021/03/05 07:35:20;;;;;;;17.30;15.60;;;4.30;99.90;;;;;;5045812;28;20990;-88
2021/03/05 07:37:50;;;;;;;17.10;15.30;;;4.30;99.90;;;;;;5038951;28;20674;-89
2021/03/05 07:40:18;;;;;;;20.17;17.73;;;4.30;99.90;;;;;;5038923;28;20680;-88
2021/03/05 07:42:45;;;;;;;15.53;14.10;;;4.30;99.90;;;;;;5040527;28;20683;-88
2021/03/05 07:45:14;;;;;;;15.40;13.90;;;4.40;99.90;;;;;;5039985;28;20661;-90
2021/03/05 07:47:46;;;;;;;17.83;16.00;;;4.50;99.90;;;;;;5036378;28;20706;-89
2021/03/05 07:50:15;;;;;;;17.47;15.67;;;4.60;99.90;;;;;;5043621;28;20661;-88
2021/03/05 07:52:42;;;;;;;16.20;14.70;;;4.50;99.90;;;;;;5043191;28;21262;-89
2021/03/05 07:55:09;;;;;;;17.30;15.70;;;4.50;99.90;;;;;;5041548;28;20627;-88
2021/03/05 07:57:46;;;;;;;17.87;16.07;;;4.60;99.90;;;;;;5041256;28;20673;-89
2021/03/05 08:00:14;;;;;;;16.80;15.17;;;4.60;99.90;;;;;;5048159;28;21217;-88
2021/03/05 08:02:56;;;;;;;16.47;14.87;;;4.50;99.90;;;;;;5025810;28;21918;-90
2021/03/05 08:05:39;;;;;;;16.30;14.80;;;4.60;99.90;;;;;;5041306;28;20638;-88
2021/03/05 08:08:24;;;;;;;16.27;14.77;;;4.40;99.90;;;;;;5035503;28;20756;-88
2021/03/05 08:10:53;;;;;;;17.47;15.77;;;4.60;99.90;;;;;;5043814;28;21240;-89
2021/03/05 08:13:44;;;;;;;15.90;14.30;;;4.60;99.90;;;;;;5042544;28;20634;-89
2021/03/05 08:16:47;;;;;;;17.53;15.83;;;4.60;99.90;;;;;;5048502;28;20648;-88
2021/03/05 08:19:48;;;;;;;17.07;15.37;;;4.60;99.90;;;;;;5036950;28;20668;-89
2021/03/05 08:22:19;;;;;;;17.20;15.60;;;4.70;99.90;;;;;;5044241;28;20632;-89
2021/03/05 08:24:46;;;;;;;16.90;15.30;;;4.80;99.90;;;;;;5049784;28;20664;-88
2021/03/05 08:27:18;;;;;;;17.70;16.00;;;4.70;99.90;;;;;;5040526;28;20630;-88
2021/03/05 08:29:50;;;;;;;17.00;15.30;;;4.80;99.90;;;;;;5048211;28;21290;-89
2021/03/05 08:32:45;;;;;;;17.47;15.73;;;5.00;99.90;;;;;;5044776;28;20666;-89
2021/03/05 08:35:16;;;;;;;16.73;15.10;;;4.80;99.90;;;;;;5034724;28;20995;-89
2021/03/05 08:37:44;;;;;;;17.37;15.63;;;4.80;99.90;;;;;;5062888;28;20695;-89
2021/03/05 08:40:28;;;;;;;16.93;14.80;;;4.90;99.90;;;;;;5040584;28;20661;-90
2021/03/05 08:42:57;;;;;;;15.33;13.53;;;5.00;99.90;;;;;;5022764;28;20905;-90
2021/03/05 08:45:25;;;;;;;18.50;16.70;;;5.00;99.90;;;;;;5041631;28;20631;-90
2021/03/05 08:47:53;;;;;;;16.57;14.80;;;5.00;99.90;;;;;;5041004;28;20699;-88
2021/03/05 08:50:22;;;;;;;16.23;14.63;;;5.00;99.90;;;;;;5041103;28;20672;-90
2021/03/05 08:52:51;;;;;;;16.70;15.10;;;4.90;99.90;;;;;;5043796;28;20776;-90
2021/03/05 08:55:21;;;;;;;17.07;15.37;;;5.00;99.90;;;;;;5050960;28;21095;-89
2021/03/05 08:57:49;;;;;;;16.87;15.13;;;5.20;99.90;;;;;;5039011;28;20626;-90
2021/03/05 09:00:17;;;;;;;17.73;16.03;;;5.00;99.90;;;;;;5051183;28;20662;-89
2021/03/05 09:02:45;;;;;;;15.50;13.97;;;5.10;99.90;;;;;;5038999;28;20627;-89
2021/03/05 09:05:14;;;;;;;18.20;16.40;;;5.10;99.90;;;;;;5051232;28;20633;-89
2021/03/05 09:07:48;;;;;;;16.23;14.63;;;5.10;99.90;;;;;;5044510;28;20626;-89
2021/03/05 09:10:16;;;;;;;17.33;15.40;;;5.30;99.90;;;;;;5047906;28;20662;-89
2021/03/05 09:12:56;;;;;;;16.30;14.83;;;5.40;99.90;;;;;;5055247;28;20650;-88
2021/03/05 09:15:27;;;;;;;17.60;15.87;;;5.50;99.90;;;;;;5060176;28;20735;-89
2021/03/05 09:17:55;;;;;;;16.53;14.93;;;5.30;99.90;;;;;;5052289;28;20626;-89
2021/03/05 09:20:21;;;;;;;17.10;15.43;;;5.40;99.90;;;;;;5050236;28;20687;-89
2021/03/05 09:22:48;;;;;;;16.60;14.90;;;5.50;99.90;;;;;;5044833;28;20653;-90
2021/03/05 09:25:15;;;;;;;15.40;13.97;;;5.40;99.90;;;;;;5050883;28;20652;-91
2021/03/05 09:27:43;;;;;;;16.83;15.33;;;5.50;99.90;;;;;;5045102;28;20627;-92
2021/03/05 09:30:15;;;;;;;16.60;14.90;;;5.30;99.90;;;;;;5044569;28;21095;-92
2021/03/05 09:32:51;;;;;;;19.07;16.63;;;5.40;99.90;;;;;;5045541;28;20711;-91
2021/03/05 09:35:23;;;;;;;16.13;14.63;;;5.30;99.90;;;;;;5042178;28;20665;-90
2021/03/05 09:37:50;;;;;;;17.20;15.50;;;5.30;99.90;;;;;;5047893;28;20719;-91
2021/03/05 09:40:17;;;;;;;15.83;14.23;;;5.30;99.90;;;;;;5045887;28;20689;-93
2021/03/05 09:42:46;;;;;;;17.00;15.33;;;5.20;99.90;;;;;;5031273;28;20629;-92
2021/03/05 09:45:15;;;;;;;17.20;14.50;;;5.30;99.90;;;;;;5048865;28;20645;-92
2021/03/05 09:47:59;;;;;;;15.27;13.67;;;5.30;99.90;;;;;;5050916;28;20692;-94
2021/03/05 09:50:28;;;;;;;15.43;13.87;;;5.40;99.90;;;;;;5043236;28;20669;-92
2021/03/05 09:52:55;;;;;;;14.90;13.50;;;5.30;99.90;;;;;;5025889;28;20657;-92
2021/03/05 09:55:29;;;;;;;16.63;14.33;;;5.20;99.90;;;;;;5048019;28;20637;-92
2021/03/05 09:58:09;;;;;;;15.60;14.10;;;5.40;99.90;;;;;;5052164;28;20701;-94
2021/03/05 10:00:37;;;;;;;15.87;14.27;;;5.60;99.90;;;;;;5046914;28;20650;-92
2021/03/05 10:03:06;;;;;;;14.00;12.50;;;5.80;99.90;;;;;;5046655;28;20639;-94
2021/03/05 10:05:34;;;;;;;14.00;12.70;;;5.80;99.90;;;;;;5029285;28;20702;-91
2021/03/05 10:08:09;;;;;;;14.80;13.30;;;6.00;99.90;;;;;;5034367;28;20635;-91
2021/03/05 10:10:50;;;;;;;14.93;13.50;;;5.90;99.90;;;;;;5028408;28;20658;-92
2021/03/05 10:13:17;;;;;;;16.53;13.63;;;5.90;99.90;;;;;;5039302;28;21185;-91
2021/03/05 10:15:49;;;;;;;15.43;13.83;;;5.60;99.90;;;;;;5042448;28;20703;-91
2021/03/05 10:18:15;;;;;;;15.70;14.10;;;5.70;99.90;;;;;;5041001;28;20634;-90
2021/03/05 10:20:51;;;;;;;15.50;13.90;;;5.90;99.90;;;;;;5042256;28;20716;-92
2021/03/05 10:23:19;;;;;;;16.17;14.33;;;6.00;99.90;;;;;;5035155;28;20632;-91
2021/03/05 10:25:51;;;;;;;16.17;14.43;;;6.00;99.90;;;;;;5037801;28;20630;-91
2021/03/05 10:28:25;;;;;;;15.20;13.70;;;5.90;99.90;;;;;;5023454;28;20602;-91
2021/03/05 10:30:52;;;;;;;15.17;13.77;;;6.10;99.90;;;;;;5043439;28;21140;-92
2021/03/05 10:33:40;;;;;;;15.43;13.80;;;6.00;99.90;;;;;;5040396;28;20642;-92
2021/03/05 10:36:08;;;;;;;16.70;13.27;;;6.00;99.90;;;;;;5044442;28;20629;-93
2021/03/05 10:38:42;;;;;;;14.03;12.63;;;6.10;99.90;;;;;;5048447;28;20665;-93
2021/03/05 10:41:10;;;;;;;14.47;12.97;;;6.20;99.90;;;;;;5055652;28;20745;-92
2021/03/05 10:43:39;;;;;;;13.80;12.50;;;6.30;99.90;;;;;;5038573;28;20633;-93
2021/03/05 10:46:10;;;;;;;14.83;13.33;;;6.20;99.90;;;;;;5049978;28;20726;-92
2021/03/05 10:48:37;;;;;;;14.00;12.60;;;6.10;99.90;;;;;;5039817;28;20611;-91
2021/03/05 10:51:05;;;;;;;13.37;12.03;;;6.50;99.90;;;;;;5053087;28;20671;-92
2021/03/05 10:53:31;;;;;;;13.60;12.40;;;6.50;99.90;;;;;;5042904;28;20630;-92
2021/03/05 10:56:01;;;;;;;13.30;12.00;;;6.60;99.90;;;;;;5046655;28;20639;-92
2021/03/05 10:58:27;;;;;;;14.90;13.50;;;6.60;99.90;;;;;;5032217;28;20621;-92
2021/03/05 11:00:54;;;;;;;13.20;11.80;;;6.50;99.90;;;;;;5044454;28;21128;-92
2021/03/05 11:03:20;;;;;;;14.40;13.10;;;6.40;99.90;;;;;;5040948;28;20654;-92
2021/03/05 11:05:47;;;;;;;14.17;11.50;;;6.50;99.90;;;;;;5038855;28;20631;-93
2021/03/05 11:08:15;;;;;;;13.63;12.23;;;6.70;99.90;;;;;;5048182;28;20645;-91
2021/03/05 11:10:42;;;;;;;13.17;11.97;;;6.70;99.90;;;;;;5030943;28;20770;-91
2021/03/05 11:13:11;;;;;;;15.10;13.50;;;6.40;99.90;;;;;;5039744;28;20714;-94
2021/03/05 11:15:38;;;;;;;13.63;12.33;;;6.40;99.90;;;;;;5044000;28;20617;-92
2021/03/05 11:18:04;;;;;;;12.67;11.47;;;6.40;99.90;;;;;;5044443;28;20641;-93
2021/03/05 11:20:31;;;;;;;14.90;13.30;;;6.50;99.90;;;;;;5036790;28;20724;-92
2021/03/05 11:22:57;;;;;;;13.23;12.00;;;6.60;99.90;;;;;;5043675;28;20626;-92
2021/03/05 11:25:24;;;;;;;13.50;12.10;;;6.60;99.90;;;;;;5042750;28;20629;-93
2021/03/05 11:27:53;;;;;;;14.37;13.07;;;6.70;99.90;;;;;;5042755;28;20645;-94
2021/03/05 11:30:26;;;;;;;14.30;12.90;;;6.60;99.90;;;;;;5049126;28;20661;-93
2021/03/05 11:32:53;;;;;;;14.73;13.17;;;6.30;99.90;;;;;;5045959;28;20677;-93
2021/03/05 11:35:19;;;;;;;13.90;12.60;;;6.40;99.90;;;;;;5043464;28;20633;-92
2021/03/05 11:37:45;;;;;;;13.23;12.03;;;6.30;99.90;;;;;;5046034;28;20630;-92
2021/03/05 11:40:13;;;;;;;14.73;13.10;;;6.50;99.90;;;;;;5040593;28;20662;-92
2021/03/05 11:42:40;;;;;;;15.00;13.20;;;6.50;99.90;;;;;;5041574;28;20626;-91
2021/03/05 11:45:07;;;;;;;12.80;11.30;;;6.50;99.90;;;;;;5045074;28;20641;-90
2021/03/05 11:47:35;;;;;;;14.10;12.20;;;6.50;99.90;;;;;;5041073;28;20621;-89
2021/03/05 11:50:01;;;;;;;13.13;11.93;;;6.20;99.90;;;;;;5037382;28;20704;-88
2021/03/05 11:52:27;;;;;;;13.10;11.73;;;6.00;99.90;;;;;;5040743;28;21322;-86
2021/03/05 11:54:56;;;;;;;14.20;12.70;;;6.00;99.90;;;;;;5046371;28;20633;-89
2021/03/05 11:57:22;;;;;;;13.47;12.07;;;6.00;99.90;;;;;;5035240;28;20843;-88
2021/03/05 11:59:50;;;;;;;15.43;13.07;;;6.10;99.90;;;;;;5040034;28;20712;-91
2021/03/05 12:02:16;;;;;;;13.47;12.17;;;6.20;99.90;;;;;;5056673;28;20634;-90
2021/03/05 12:04:46;;;;;;;15.00;13.40;;;6.10;99.90;;;;;;5064963;28;20615;-89
2021/03/05 12:07:14;;;;;;;13.67;12.47;;;6.20;99.90;;;;;;5060791;28;20648;-89
2021/03/05 12:09:42;;;;;;;12.87;11.73;;;6.20;99.90;;;;;;5045167;28;20647;-90
2021/03/05 12:12:11;;;;;;;14.50;13.00;;;6.30;99.90;;;;;;5062029;28;20723;-90
2021/03/05 12:14:38;;;;;;;14.40;13.00;;;6.40;99.90;;;;;;5061488;28;20611;-89
2021/03/05 12:17:06;;;;;;;15.37;13.87;;;6.30;99.90;;;;;;5058736;28;20606;-89
2021/03/05 12:19:32;;;;;;;13.63;12.33;;;6.20;99.90;;;;;;5051195;28;21316;-90
2021/03/05 12:22:06;;;;;;;16.10;13.60;;;6.00;99.90;;;;;;5045646;28;20645;-89
2021/03/05 12:24:32;;;;;;;15.87;14.27;;;6.30;99.90;;;;;;5052635;28;20692;-90
2021/03/05 12:26:58;;;;;;;16.37;14.77;;;6.30;99.90;;;;;;5058180;28;20641;-91
2021/03/05 12:29:25;;;;;;;15.23;13.70;;;6.40;99.90;;;;;;5053027;28;20665;-91
2021/03/05 12:31:52;;;;;;;19.93;13.60;;;6.30;99.90;;;;;;5048593;28;20665;-91
2021/03/05 12:34:18;;;;;;;14.63;13.20;;;6.30;99.90;;;;;;5039303;28;20638;-90
2021/03/05 12:36:45;;;;;;;13.93;12.43;;;6.30;99.90;;;;;;5047382;28;20642;-90
2021/03/05 12:39:16;;;;;;;17.47;14.33;;;6.20;99.90;;;;;;5054392;28;20684;-91
2021/03/05 12:41:44;;;;;;;14.87;13.30;;;6.30;99.90;;;;;;5054406;28;20753;-90
2021/03/05 12:44:11;;;;;;;19.73;13.70;;;6.30;99.90;;;;;;5041438;28;20680;-90
2021/03/05 12:46:37;;;;;;;14.40;12.90;;;6.50;99.90;;;;;;5046746;28;20630;-88